createdAt,value
2019-06-26T00:00:44.000Z,14.5
2019-06-26T00:04:07.000Z,13.3
2019-06-26T00:07:32.000Z,13.9
2019-06-26T00:10:56.000Z,13.9
2019-06-26T00:14:19.000Z,13.3
2019-06-26T00:17:43.000Z,14.5
2019-06-26T00:21:11.000Z,14.2
2019-06-26T00:24:37.000Z,14.3
2019-06-26T00:28:01.000Z,15
2019-06-26T00:31:26.000Z,14.9
2019-06-26T00:34:49.000Z,15.3
2019-06-26T00:38:14.000Z,15
2019-06-26T00:41:38.000Z,15.5
2019-06-26T00:45:01.000Z,14.7
2019-06-26T00:48:24.000Z,14.9
2019-06-26T00:51:49.000Z,14.9
2019-06-26T00:55:12.000Z,14.8
2019-06-26T00:58:38.000Z,15.5
2019-06-26T01:02:03.000Z,15.1
2019-06-26T01:05:28.000Z,15.4
2019-06-26T01:08:55.000Z,15.2
2019-06-26T01:12:22.000Z,15.2
2019-06-26T01:15:52.000Z,15.5
2019-06-26T01:19:20.000Z,16
2019-06-26T01:22:46.000Z,15.6
2019-06-26T01:26:11.000Z,15.8
2019-06-26T01:29:40.000Z,14.8
2019-06-26T01:33:11.000Z,15.3
2019-06-26T01:36:39.000Z,16.3
2019-06-26T01:40:08.000Z,15.3
2019-06-26T01:43:35.000Z,16
2019-06-26T01:47:03.000Z,16.7
2019-06-26T01:50:33.000Z,16.9
2019-06-26T01:53:59.000Z,17.4
2019-06-26T01:57:34.000Z,17.1
2019-06-26T02:01:05.000Z,17.2
2019-06-26T02:04:34.000Z,16.7
2019-06-26T02:08:05.000Z,17.2
2019-06-26T02:11:40.000Z,17.8
2019-06-26T02:15:08.000Z,17.1
2019-06-26T02:18:43.000Z,17.1
2019-06-26T02:22:12.000Z,17.6
2019-06-26T02:25:38.000Z,17.6
2019-06-26T02:29:13.000Z,17
2019-06-26T02:32:49.000Z,16.9
2019-06-26T02:36:18.000Z,18.9
2019-06-26T02:39:50.000Z,17
2019-06-26T02:43:25.000Z,17.1
2019-06-26T02:47:01.000Z,17.2
2019-06-26T02:50:48.000Z,17.7
2019-06-26T02:54:22.000Z,17.3
2019-06-26T02:57:57.000Z,17.7
2019-06-26T03:01:36.000Z,15.6
2019-06-26T03:05:14.000Z,17.1
2019-06-26T03:08:43.000Z,17.9
2019-06-26T03:12:14.000Z,18
2019-06-26T03:15:44.000Z,17.2
2019-06-26T03:19:20.000Z,17.5
2019-06-26T03:23:03.000Z,17.7
2019-06-26T03:26:36.000Z,16.7
2019-06-26T03:30:19.000Z,17.1
2019-06-26T03:33:56.000Z,17.8
2019-06-26T03:37:39.000Z,17.1
2019-06-26T03:41:14.000Z,17.5
2019-06-26T03:44:57.000Z,17.6
2019-06-26T03:48:43.000Z,17.7
2019-06-26T03:52:26.000Z,17.4
2019-06-26T03:56:16.000Z,17.1
2019-06-26T03:59:53.000Z,17.7
2019-06-26T04:03:35.000Z,17.4
2019-06-26T04:07:11.000Z,16.9
2019-06-26T04:10:55.000Z,16.8
2019-06-26T04:15:45.000Z,17.5
2019-06-26T04:19:13.000Z,16.8
2019-06-26T04:22:36.000Z,16.8
2019-06-26T04:26:04.000Z,21.8
2019-06-26T04:29:27.000Z,21.4
2019-06-26T04:32:50.000Z,18
2019-06-26T04:36:13.000Z,18
2019-06-26T04:39:39.000Z,19.2
2019-06-26T04:43:02.000Z,19.9
2019-06-26T04:46:27.000Z,22.7
2019-06-26T04:49:50.000Z,15.8
2019-06-26T04:53:24.000Z,18.8
2019-06-26T04:56:49.000Z,17.3
2019-06-26T05:00:15.000Z,17.4
2019-06-26T05:03:39.000Z,17.1
2019-06-26T05:07:03.000Z,17.7
2019-06-26T05:10:30.000Z,14.9
2019-06-26T05:13:54.000Z,17.3
2019-06-26T05:17:19.000Z,13.5
2019-06-26T05:20:44.000Z,22.8
2019-06-26T05:24:08.000Z,14.9
2019-06-26T05:27:35.000Z,14.8
2019-06-26T05:31:00.000Z,15.2
2019-06-26T05:34:29.000Z,16.5
2019-06-26T05:37:51.000Z,15.3
2019-06-26T05:41:15.000Z,14.4
2019-06-26T05:44:42.000Z,19.9
2019-06-26T05:48:09.000Z,16
2019-06-26T05:51:33.000Z,25.1
2019-06-26T05:54:58.000Z,26.8
2019-06-26T05:58:25.000Z,17.9
2019-06-26T06:01:53.000Z,23.9
2019-06-26T06:05:19.000Z,18.3
2019-06-26T06:08:46.000Z,20.2
2019-06-26T06:12:16.000Z,17.7
2019-06-26T06:15:42.000Z,23.2
2019-06-26T06:19:12.000Z,24.7
2019-06-26T06:22:35.000Z,18.1
2019-06-26T06:26:01.000Z,22.4
2019-06-26T06:29:27.000Z,21.3
2019-06-26T06:32:52.000Z,18.3
2019-06-26T06:36:20.000Z,17.3
2019-06-26T06:39:46.000Z,21.4
2019-06-26T06:43:17.000Z,18
2019-06-26T06:46:49.000Z,19
2019-06-26T06:50:26.000Z,19.9
2019-06-26T06:53:51.000Z,21.3
2019-06-26T06:57:25.000Z,16
2019-06-26T07:00:59.000Z,17
2019-06-26T07:04:39.000Z,17
2019-06-26T07:08:13.000Z,17.6
2019-06-26T07:11:44.000Z,14.8
2019-06-26T07:15:11.000Z,14.8
2019-06-26T07:18:42.000Z,14.9
2019-06-26T07:22:10.000Z,18.1
2019-06-26T07:25:46.000Z,15.8
2019-06-26T07:29:18.000Z,14.5
2019-06-26T07:32:53.000Z,15.6
2019-06-26T07:36:27.000Z,14.5
2019-06-26T07:40:01.000Z,14.7
2019-06-26T07:43:37.000Z,13.7
2019-06-26T07:47:08.000Z,16.2
2019-06-26T07:50:58.000Z,14.8
2019-06-26T07:54:30.000Z,14.1
2019-06-26T07:58:01.000Z,13.6
2019-06-26T08:01:39.000Z,15.5
2019-06-26T08:05:17.000Z,15
2019-06-26T08:08:54.000Z,14.7
2019-06-26T08:12:27.000Z,14.5
2019-06-26T08:16:12.000Z,14.7
2019-06-26T08:20:07.000Z,12.7
2019-06-26T08:23:42.000Z,14
2019-06-26T08:27:20.000Z,14.7
2019-06-26T08:31:04.000Z,21.5
2019-06-26T08:34:43.000Z,13.6
2019-06-26T08:38:19.000Z,13.7
2019-06-26T08:41:53.000Z,12.9
2019-06-26T08:45:36.000Z,12.9
2019-06-26T08:49:16.000Z,12.2
2019-06-26T08:52:57.000Z,12
2019-06-26T08:56:35.000Z,12
2019-06-26T09:00:15.000Z,12.2
2019-06-26T09:05:05.000Z,13.2
2019-06-26T09:08:28.000Z,13.1
2019-06-26T09:11:51.000Z,13.3
2019-06-26T09:15:16.000Z,12.9
2019-06-26T09:18:39.000Z,11.4
2019-06-26T09:22:02.000Z,11.2
2019-06-26T09:25:25.000Z,11.8
2019-06-26T09:28:48.000Z,11.1
2019-06-26T09:32:13.000Z,13.4
2019-06-26T09:35:35.000Z,10.6
2019-06-26T09:38:58.000Z,10.2
2019-06-26T09:42:25.000Z,11.7
2019-06-26T09:45:50.000Z,11.2
2019-06-26T09:49:15.000Z,9.2
2019-06-26T09:52:38.000Z,15.9
2019-06-26T09:56:01.000Z,12.2
2019-06-26T09:59:28.000Z,10.7
2019-06-26T10:02:53.000Z,10.6
2019-06-26T10:06:18.000Z,9.9
2019-06-26T10:09:41.000Z,10.4
2019-06-26T10:13:06.000Z,12.4
2019-06-26T10:16:41.000Z,11.3
2019-06-26T10:20:06.000Z,9.8
2019-06-26T10:23:31.000Z,10.8
2019-06-26T10:26:56.000Z,10.1
2019-06-26T10:30:20.000Z,8.6
2019-06-26T10:33:45.000Z,9.6
2019-06-26T10:37:10.000Z,10.7
2019-06-26T10:40:33.000Z,10.1
2019-06-26T10:43:58.000Z,10.7
2019-06-26T10:47:22.000Z,9.9
2019-06-26T10:50:47.000Z,9.1
2019-06-26T10:54:16.000Z,9.6
2019-06-26T10:57:44.000Z,9.3
2019-06-26T11:01:13.000Z,8.5
2019-06-26T11:04:41.000Z,9.4
2019-06-26T11:10:35.000Z,10.9
2019-06-26T11:14:00.000Z,9.1
2019-06-26T11:17:27.000Z,9.6
2019-06-26T11:20:56.000Z,10.6
2019-06-26T11:24:27.000Z,12.9
2019-06-26T11:27:55.000Z,10.9
2019-06-26T11:31:24.000Z,11.8
2019-06-26T11:34:56.000Z,9.2
2019-06-26T11:38:26.000Z,11.1
2019-06-26T11:41:56.000Z,12.7
2019-06-26T11:45:25.000Z,12
2019-06-26T11:48:56.000Z,11
2019-06-26T11:52:24.000Z,14
2019-06-26T11:55:59.000Z,13.2
2019-06-26T11:59:33.000Z,8.4
2019-06-26T12:03:01.000Z,14.9
2019-06-26T12:06:34.000Z,8.5
2019-06-26T12:10:15.000Z,8.6
2019-06-26T12:13:53.000Z,9.5
2019-06-26T12:17:27.000Z,12.5
2019-06-26T12:20:56.000Z,11
2019-06-26T12:24:31.000Z,9.3
2019-06-26T12:28:00.000Z,11.9
2019-06-26T12:31:33.000Z,10.9
2019-06-26T12:35:12.000Z,12.1
2019-06-26T12:38:46.000Z,11.4
2019-06-26T12:42:20.000Z,11.8
2019-06-26T12:45:55.000Z,13.1
2019-06-26T12:49:36.000Z,9.2
2019-06-26T12:53:16.000Z,8.9
2019-06-26T12:56:56.000Z,13.9
2019-06-26T13:00:31.000Z,12.7
2019-06-26T13:04:15.000Z,11.7
2019-06-26T13:07:52.000Z,9
2019-06-26T13:11:27.000Z,10.9
2019-06-26T13:15:06.000Z,15.6
2019-06-26T13:18:52.000Z,9.9
2019-06-26T13:22:35.000Z,10.5
2019-06-26T13:26:17.000Z,10.7
2019-06-26T13:29:57.000Z,10
2019-06-26T13:33:35.000Z,10.6
2019-06-26T13:37:13.000Z,11.6
2019-06-26T13:40:56.000Z,12.7
2019-06-26T13:44:40.000Z,12.2
2019-06-26T13:48:20.000Z,10.2
2019-06-26T13:53:15.000Z,15.9
2019-06-26T13:56:39.000Z,13.1
2019-06-26T14:00:02.000Z,14.3
2019-06-26T14:03:25.000Z,12.6
2019-06-26T14:06:48.000Z,13.5
2019-06-26T14:10:11.000Z,12.5
2019-06-26T14:13:34.000Z,11.5
2019-06-26T14:16:57.000Z,14.9
2019-06-26T14:20:23.000Z,18
2019-06-26T14:23:47.000Z,15.2
2019-06-26T14:27:10.000Z,13.6
2019-06-26T14:30:33.000Z,12.2
2019-06-26T14:33:56.000Z,12.8
2019-06-26T14:37:20.000Z,13.1
2019-06-26T14:40:44.000Z,13.4
2019-06-26T14:44:07.000Z,17.6
2019-06-26T14:47:31.000Z,15.4
2019-06-26T14:50:54.000Z,17.6
2019-06-26T14:54:18.000Z,12.4
2019-06-26T14:57:41.000Z,12.3
2019-06-26T15:01:05.000Z,18.4
2019-06-26T15:04:28.000Z,16.3
2019-06-26T15:08:09.000Z,15.7
2019-06-26T15:11:35.000Z,13.4
2019-06-26T15:15:00.000Z,13.4
2019-06-26T15:18:24.000Z,17.2
2019-06-26T15:21:59.000Z,15.9
2019-06-26T15:25:25.000Z,16.9
2019-06-26T15:28:48.000Z,19.6
2019-06-26T15:32:14.000Z,14.9
2019-06-26T15:39:31.000Z,19.5
2019-06-26T15:42:57.000Z,15.5
2019-06-26T15:46:21.000Z,19.7
2019-06-26T15:49:45.000Z,14.6
2019-06-26T15:53:09.000Z,16.7
2019-06-26T15:56:33.000Z,15.9
2019-06-26T15:59:57.000Z,14.7
2019-06-26T16:03:20.000Z,19.8
2019-06-26T16:06:44.000Z,17.8
2019-06-26T16:10:08.000Z,16.4
2019-06-26T16:13:32.000Z,13.9
2019-06-26T16:17:03.000Z,19.1
2019-06-26T16:20:27.000Z,14
2019-06-26T16:23:52.000Z,13.1
2019-06-26T16:27:16.000Z,16.5
2019-06-26T16:30:39.000Z,14
2019-06-26T16:34:02.000Z,12.5
2019-06-26T16:37:25.000Z,12.6
2019-06-26T16:40:50.000Z,13.8
2019-06-26T16:44:16.000Z,14.4
2019-06-26T16:47:43.000Z,11.8
2019-06-26T16:51:08.000Z,15.1
2019-06-26T16:54:43.000Z,12
2019-06-26T16:58:06.000Z,12.6
2019-06-26T17:01:32.000Z,12.1
2019-06-26T17:04:57.000Z,11.1
2019-06-26T17:08:21.000Z,12.8
2019-06-26T17:11:44.000Z,12.4
2019-06-26T17:15:07.000Z,14.6
2019-06-26T17:18:33.000Z,14
2019-06-26T17:22:00.000Z,18.3
2019-06-26T17:25:24.000Z,19.7
2019-06-26T17:28:53.000Z,12.4
2019-06-26T17:32:19.000Z,14.7
2019-06-26T17:39:06.000Z,13.5
2019-06-26T17:42:29.000Z,10.8
2019-06-26T17:45:52.000Z,10.7
2019-06-26T17:49:15.000Z,14.1
2019-06-26T17:52:38.000Z,12.7
2019-06-26T17:56:02.000Z,12
2019-06-26T17:59:25.000Z,12.6
2019-06-26T18:02:49.000Z,13.6
2019-06-26T18:06:12.000Z,12.9
2019-06-26T18:09:36.000Z,13
2019-06-26T18:12:59.000Z,13.1
2019-06-26T18:16:25.000Z,13.3
2019-06-26T18:19:48.000Z,13
2019-06-26T18:23:13.000Z,13.2
2019-06-26T18:26:54.000Z,12.8
2019-06-26T18:30:18.000Z,12.8
2019-06-26T18:33:43.000Z,12.8
2019-06-26T18:37:15.000Z,12.9
2019-06-26T18:40:39.000Z,13.5
2019-06-26T18:44:02.000Z,12.1
2019-06-26T18:47:27.000Z,11.9
2019-06-26T18:50:51.000Z,11.6
2019-06-26T18:54:15.000Z,12.2
2019-06-26T18:57:42.000Z,10.9
2019-06-26T19:01:06.000Z,11.3
2019-06-26T19:04:33.000Z,11.1
2019-06-26T19:08:02.000Z,12
2019-06-26T19:11:27.000Z,12.5
2019-06-26T19:14:52.000Z,11.8
2019-06-26T19:18:19.000Z,10.9
2019-06-26T19:21:47.000Z,11
2019-06-26T19:25:12.000Z,11.1
2019-06-26T19:28:38.000Z,10.9
2019-06-26T19:32:01.000Z,10.8
2019-06-26T19:35:32.000Z,10.5
2019-06-26T19:39:00.000Z,11.1
2019-06-26T19:42:29.000Z,12.2
2019-06-26T19:46:00.000Z,13.4
2019-06-26T19:49:30.000Z,13.5
2019-06-26T19:52:58.000Z,14
2019-06-26T19:56:30.000Z,14.3
2019-06-26T19:59:59.000Z,15.8
2019-06-26T20:03:31.000Z,15.5
2019-06-26T20:07:00.000Z,14.8
2019-06-26T20:10:53.000Z,16
2019-06-26T20:14:20.000Z,15.9
2019-06-26T20:17:49.000Z,15.4
2019-06-26T20:21:18.000Z,15.2
2019-06-26T20:24:47.000Z,14.7
2019-06-26T20:28:19.000Z,14.8
2019-06-26T20:31:50.000Z,16.6
2019-06-26T20:35:18.000Z,15.7
2019-06-26T20:38:49.000Z,16
2019-06-26T20:42:23.000Z,15.3
2019-06-26T20:46:02.000Z,16.2
2019-06-26T20:49:34.000Z,15
2019-06-26T20:53:21.000Z,15.1
2019-06-26T20:57:03.000Z,15.6
2019-06-26T21:00:38.000Z,15.4
2019-06-26T21:06:09.000Z,15.1
2019-06-26T21:09:32.000Z,15.2
2019-06-26T21:12:56.000Z,16
2019-06-26T21:16:22.000Z,15.8
2019-06-26T21:19:46.000Z,14.7
2019-06-26T21:23:09.000Z,15.8
2019-06-26T21:26:34.000Z,15.2
2019-06-26T21:29:57.000Z,14.7
2019-06-26T21:33:20.000Z,16.1
2019-06-26T21:36:43.000Z,14.8
2019-06-26T21:40:06.000Z,14.7
2019-06-26T21:43:30.000Z,14.5
2019-06-26T21:46:53.000Z,13.6
2019-06-26T21:50:17.000Z,14.2
2019-06-26T21:56:00.000Z,13.1
2019-06-26T21:59:24.000Z,13.9
2019-06-26T22:02:48.000Z,14.1
2019-06-26T22:06:13.000Z,13.2
2019-06-26T22:09:40.000Z,12.9
2019-06-26T22:13:05.000Z,14.5
2019-06-26T22:16:31.000Z,13.8
2019-06-26T22:19:54.000Z,12.9
2019-06-26T22:23:18.000Z,12.9
2019-06-26T22:26:44.000Z,15
2019-06-26T22:30:13.000Z,13.2
2019-06-26T22:33:40.000Z,12.9
2019-06-26T22:37:05.000Z,15.6
2019-06-26T22:40:30.000Z,13.9
2019-06-26T22:43:56.000Z,12.6
2019-06-26T22:47:21.000Z,13.3
2019-06-26T22:50:48.000Z,16.1
2019-06-26T22:54:18.000Z,13.9
2019-06-26T22:57:45.000Z,14.5
2019-06-26T23:01:10.000Z,15.3
2019-06-26T23:04:37.000Z,15.5
2019-06-26T23:08:08.000Z,14
2019-06-26T23:11:35.000Z,14.4
2019-06-26T23:15:06.000Z,13.7
2019-06-26T23:18:31.000Z,12.5
2019-06-26T23:21:59.000Z,13.8
2019-06-26T23:25:31.000Z,14.7
2019-06-26T23:28:59.000Z,13.6
2019-06-26T23:32:25.000Z,12.9
2019-06-26T23:39:31.000Z,12.4
2019-06-26T23:42:55.000Z,13.8
2019-06-26T23:46:18.000Z,12.8
2019-06-26T23:49:41.000Z,12.9
2019-06-26T23:53:04.000Z,13.5
2019-06-26T23:56:28.000Z,14.2
2019-06-26T23:59:57.000Z,13.2
